Time;durP1;ratioP1;P1;durP2;ratioP2;P2;SDS_P1;SDS_P2;PMS_P1;PMS_P2;Temp;Humidity;BMP_temperature;BMP_pressure;BME280_temperature;BME280_humidity;BME280_pressure;Samples;Min_cycle;Max_cycle;Signal;HPM_P1;HPM_P2
2022/03/02 00:01:48;;;;;;;47.03;29.27;;;5.60;99.90;;;;;;4848825;29;20071;-86
2022/03/02 00:04:14;;;;;;;50.40;30.45;;;5.70;99.90;;;;;;4832296;29;20085;-89
2022/03/02 00:06:40;;;;;;;45.40;30.58;;;5.70;99.90;;;;;;4860297;29;20078;-89
2022/03/02 00:09:05;;;;;;;52.53;32.17;;;5.60;99.90;;;;;;4847447;29;20074;-89
2022/03/02 00:11:31;;;;;;;49.85;30.73;;;5.50;99.90;;;;;;4845507;29;20056;-86
2022/03/02 00:13:59;;;;;;;48.80;30.10;;;6.30;99.90;;;;;;4862449;29;20105;-88
2022/03/02 00:16:26;;;;;;;47.10;30.23;;;5.60;99.90;;;;;;4862112;29;20042;-89
2022/03/02 00:18:52;;;;;;;47.78;30.92;;;5.50;99.90;;;;;;4862332;29;20081;-86
2022/03/02 00:21:18;;;;;;;48.33;30.30;;;5.70;99.90;;;;;;4860656;29;20057;-89
2022/03/02 00:23:44;;;;;;;46.20;30.25;;;5.60;99.90;;;;;;4846656;29;20030;-88
2022/03/02 00:26:09;;;;;;;55.88;32.28;;;5.60;99.90;;;;;;4846494;29;20054;-89
2022/03/02 00:28:35;;;;;;;43.80;29.65;;;5.60;99.90;;;;;;4862243;29;20045;-88
2022/03/02 00:31:01;;;;;;;48.10;30.10;;;5.60;99.90;;;;;;4861827;29;20120;-88
2022/03/02 00:33:26;;;;;;;40.97;25.00;;;5.70;99.90;;;;;;4861704;29;20049;-91
2022/03/02 00:35:52;;;;;;;43.50;29.33;;;5.60;99.90;;;;;;4852249;29;20110;-92
2022/03/02 00:38:18;;;;;;;48.10;30.48;;;5.60;99.90;;;;;;4826338;29;20049;-92
2022/03/02 00:40:43;;;;;;;49.20;29.88;;;5.50;99.90;;;;;;4840848;29;20125;-93
2022/03/02 00:43:09;;;;;;;53.63;31.90;;;5.40;99.90;;;;;;4826246;29;20054;-95
2022/03/02 00:45:35;;;;;;;49.28;30.85;;;5.90;99.90;;;;;;4825151;29;20042;-92
2022/03/02 00:48:01;;;;;;;50.78;31.77;;;5.30;99.90;;;;;;4810657;29;20444;-92
2022/03/02 00:50:27;;;;;;;49.17;30.90;;;5.50;99.90;;;;;;4825111;29;20141;-91
2022/03/02 00:52:53;;;;;;;53.35;29.30;;;5.30;99.90;;;;;;4825077;29;20137;-91
2022/03/02 00:55:19;;;;;;;49.00;29.95;;;5.40;99.90;;;;;;4841187;29;20050;-92
2022/03/02 00:57:44;;;;;;;49.08;28.73;;;6.30;99.90;;;;;;4841785;29;20064;-93
2022/03/02 01:00:10;;;;;;;47.75;31.52;;;5.60;99.90;;;;;;4814808;29;20194;-94
2022/03/02 01:02:36;;;;;;;51.97;32.17;;;6.10;99.90;;;;;;4850262;29;20052;-91
2022/03/02 01:05:02;;;;;;;50.45;31.63;;;5.50;99.90;;;;;;4810823;29;20061;-90
2022/03/02 01:07:28;;;;;;;46.88;30.08;;;5.20;99.90;;;;;;4840908;29;20126;-92
2022/03/02 01:09:54;;;;;;;50.83;31.15;;;5.20;99.90;;;;;;4826477;29;20490;-91
2022/03/02 01:12:19;;;;;;;48.67;30.77;;;6.20;99.90;;;;;;4844554;29;20046;-91
2022/03/02 01:14:45;;;;;;;51.83;28.80;;;5.20;99.90;;;;;;4843718;29;20090;-93
2022/03/02 01:17:10;;;;;;;47.28;30.02;;;5.30;99.90;;;;;;4845266;29;20042;-92
2022/03/02 01:19:38;;;;;;;49.55;29.70;;;5.30;99.90;;;;;;4843759;29;20462;-93
2022/03/02 01:22:05;;;;;;;50.88;30.30;;;5.20;99.90;;;;;;4843776;29;20411;-93
2022/03/02 01:24:30;;;;;;;50.72;30.95;;;5.10;99.90;;;;;;4844040;29;20046;-93
2022/03/02 01:26:56;;;;;;;49.10;29.05;;;5.30;99.90;;;;;;4843887;29;20118;-92
2022/03/02 01:29:23;;;;;;;47.58;28.23;;;5.30;99.90;;;;;;4828612;29;20415;-93
2022/03/02 01:31:48;;;;;;;53.05;32.05;;;5.40;99.90;;;;;;4844562;29;20057;-89
2022/03/02 01:34:14;;;;;;;52.38;32.22;;;5.30;99.90;;;;;;4813602;29;20062;-92
2022/03/02 01:36:40;;;;;;;53.63;32.35;;;5.70;99.90;;;;;;4844915;29;20049;-94
2022/03/02 01:39:05;;;;;;;56.03;32.22;;;5.30;99.90;;;;;;4852106;29;20107;-93
2022/03/02 01:41:31;;;;;;;50.13;30.58;;;5.10;99.90;;;;;;4863083;29;20057;-91
2022/03/02 01:43:57;;;;;;;52.97;32.63;;;5.20;99.90;;;;;;4851007;29;20069;-93
2022/03/02 01:46:23;;;;;;;54.30;32.95;;;5.10;99.90;;;;;;4828629;29;20068;-91
2022/03/02 01:48:49;;;;;;;57.17;34.10;;;5.10;99.90;;;;;;4843546;29;20054;-93
2022/03/02 01:51:15;;;;;;;58.08;33.83;;;5.30;99.90;;;;;;4827917;29;20518;-93
2022/03/02 01:53:41;;;;;;;53.70;33.40;;;5.20;99.90;;;;;;4828253;29;20130;-94
2022/03/02 01:56:06;;;;;;;53.47;32.88;;;5.50;99.90;;;;;;4828537;29;20046;-93
2022/03/02 01:58:32;;;;;;;52.92;32.60;;;5.20;99.90;;;;;;4813475;29;20056;-93
2022/03/02 02:00:58;;;;;;;55.30;33.95;;;5.20;99.90;;;;;;4844607;29;20208;-93
2022/03/02 02:03:24;;;;;;;55.88;34.63;;;6.00;99.90;;;;;;4843986;29;20097;-93
2022/03/02 02:05:50;;;;;;;56.33;34.38;;;5.80;99.90;;;;;;4797751;29;20074;-92
2022/03/02 02:08:15;;;;;;;54.95;34.55;;;5.10;99.90;;;;;;4843555;29;20110;-92
2022/03/02 02:10:41;;;;;;;57.78;34.42;;;5.10;99.90;;;;;;4828268;29;20392;-92
2022/03/02 02:13:07;;;;;;;57.88;34.17;;;5.10;99.90;;;;;;4813996;29;20392;-91
2022/03/02 02:15:32;;;;;;;60.33;35.17;;;5.10;99.90;;;;;;4798177;29;20538;-92
2022/03/02 02:17:58;;;;;;;56.30;31.70;;;5.60;99.90;;;;;;4843524;29;20093;-91
2022/03/02 02:20:25;;;;;;;58.38;34.00;;;5.20;99.90;;;;;;4843835;29;20534;-90
2022/03/02 02:22:50;;;;;;;58.28;36.38;;;5.20;99.90;;;;;;4812414;29;20054;-92
2022/03/02 02:25:16;;;;;;;65.20;36.88;;;5.20;99.90;;;;;;4844194;29;20604;-92
2022/03/02 02:27:44;;;;;;;62.83;38.08;;;5.30;99.90;;;;;;4843683;29;20073;-91
2022/03/02 02:30:10;;;;;;;58.90;33.50;;;5.10;99.90;;;;;;4828555;29;20069;-92
2022/03/02 02:32:37;;;;;;;64.18;36.70;;;5.10;99.90;;;;;;4843742;29;20046;-92
2022/03/02 02:35:03;;;;;;;62.47;37.25;;;5.00;99.90;;;;;;4827587;29;20495;-93
2022/03/02 02:37:29;;;;;;;62.97;39.00;;;5.00;99.90;;;;;;4846953;29;20590;-93
2022/03/02 02:39:56;;;;;;;61.22;35.55;;;4.90;99.90;;;;;;4822542;29;20077;-91
2022/03/02 02:42:22;;;;;;;61.75;37.28;;;5.00;99.90;;;;;;4832634;29;20041;-91
2022/03/02 02:44:48;;;;;;;61.65;35.60;;;5.00;99.90;;;;;;4859042;29;20049;-92
2022/03/02 02:47:13;;;;;;;65.35;37.13;;;5.00;99.90;;;;;;4852971;29;20060;-93
2022/03/02 02:49:39;;;;;;;61.47;35.70;;;5.00;99.90;;;;;;4859643;29;20061;-93
2022/03/02 02:52:05;;;;;;;61.53;36.08;;;5.00;99.90;;;;;;4857050;29;20136;-92
2022/03/02 02:54:31;;;;;;;60.50;35.63;;;5.00;99.90;;;;;;4844351;29;20470;-88
2022/03/02 02:56:57;;;;;;;61.20;37.25;;;5.00;99.90;;;;;;4844651;29;20136;-94
2022/03/02 02:59:24;;;;;;;64.47;37.67;;;5.60;99.90;;;;;;4844725;29;20391;-93
2022/03/02 03:01:50;;;;;;;62.72;37.60;;;4.80;99.90;;;;;;4849010;29;20061;-92
2022/03/02 03:04:15;;;;;;;60.08;36.78;;;4.80;99.90;;;;;;4855327;29;20062;-90
2022/03/02 03:06:41;;;;;;;59.67;35.97;;;4.80;99.90;;;;;;4847106;29;20061;-90
2022/03/02 03:09:07;;;;;;;59.83;37.05;;;5.00;99.90;;;;;;4841286;29;20054;-90
2022/03/02 03:11:32;;;;;;;61.67;36.97;;;4.80;99.90;;;;;;4841380;29;20054;-89
2022/03/02 03:13:58;;;;;;;58.25;35.75;;;4.80;99.90;;;;;;4841658;29;20053;-91
2022/03/02 03:16:24;;;;;;;62.65;36.47;;;4.80;99.90;;;;;;4842229;29;20076;-89
2022/03/02 03:18:50;;;;;;;66.15;36.83;;;4.80;99.90;;;;;;4821421;29;20037;-86
2022/03/02 03:21:16;;;;;;;57.55;35.33;;;4.70;99.90;;;;;;4850803;29;20054;-89
2022/03/02 03:23:41;;;;;;;59.45;35.75;;;4.80;99.90;;;;;;4826133;29;20049;-88
2022/03/02 03:26:07;;;;;;;60.03;35.72;;;4.80;99.90;;;;;;4841940;29;20502;-88
2022/03/02 03:28:33;;;;;;;60.03;36.72;;;4.70;99.90;;;;;;4842297;29;20132;-90
2022/03/02 03:30:58;;;;;;;64.05;37.33;;;4.80;99.90;;;;;;4842078;29;20061;-90
2022/03/02 03:33:24;;;;;;;60.22;37.05;;;4.90;99.90;;;;;;4841264;29;20435;-90
2022/03/02 03:35:50;;;;;;;62.55;36.45;;;5.60;99.90;;;;;;4825632;29;20053;-86
2022/03/02 03:38:15;;;;;;;72.18;38.25;;;4.80;99.90;;;;;;4841473;29;20054;-90
2022/03/02 03:40:41;;;;;;;57.95;35.60;;;4.80;99.90;;;;;;4840991;29;20053;-90
2022/03/02 03:43:06;;;;;;;61.30;36.90;;;4.90;99.90;;;;;;4841686;29;20121;-89
2022/03/02 03:45:32;;;;;;;64.10;38.13;;;4.90;99.90;;;;;;4841066;29;20050;-88
2022/03/02 03:47:58;;;;;;;66.05;35.72;;;4.80;99.90;;;;;;4810430;29;20046;-89
2022/03/02 03:50:24;;;;;;;65.50;38.50;;;5.70;99.90;;;;;;4825146;29;20058;-90
2022/03/02 03:52:49;;;;;;;60.42;36.75;;;4.70;99.90;;;;;;4825705;29;20068;-90
2022/03/02 03:55:15;;;;;;;62.83;34.70;;;5.50;99.90;;;;;;4840375;29;20046;-92
2022/03/02 03:57:41;;;;;;;65.13;37.40;;;4.80;99.90;;;;;;4825707;29;20049;-91
2022/03/02 04:00:09;;;;;;;65.53;36.38;;;4.80;99.90;;;;;;4810337;29;20085;-90
2022/03/02 04:02:35;;;;;;;63.83;37.38;;;4.70;99.90;;;;;;4810960;29;20062;-90
2022/03/02 04:05:01;;;;;;;67.72;38.88;;;4.60;99.90;;;;;;4840393;29;20053;-90
2022/03/02 04:07:26;;;;;;;62.45;33.97;;;4.60;99.90;;;;;;4842391;29;20403;-91
2022/03/02 04:09:52;;;;;;;61.08;37.97;;;4.60;99.90;;;;;;4840726;29;20049;-89
2022/03/02 04:12:18;;;;;;;61.78;37.85;;;5.50;99.90;;;;;;4841318;29;20452;-91
2022/03/02 04:14:44;;;;;;;60.70;33.67;;;4.60;99.90;;;;;;4840649;29;20513;-90
2022/03/02 04:17:11;;;;;;;72.28;40.03;;;4.60;99.90;;;;;;4840157;29;20054;-91
2022/03/02 04:19:37;;;;;;;63.55;36.30;;;4.50;99.90;;;;;;4840153;29;20050;-89
2022/03/02 04:22:04;;;;;;;64.18;37.20;;;4.40;99.90;;;;;;4839937;29;20140;-90
2022/03/02 04:24:29;;;;;;;62.97;38.33;;;4.40;99.90;;;;;;4843059;29;20046;-91
2022/03/02 04:26:55;;;;;;;62.33;35.53;;;4.30;99.90;;;;;;4844884;29;20053;-85
2022/03/02 04:29:21;;;;;;;64.80;36.03;;;4.30;99.90;;;;;;4856928;29;20056;-89
2022/03/02 04:31:47;;;;;;;64.57;36.90;;;4.40;99.90;;;;;;4842297;29;20046;-88
2022/03/02 04:34:13;;;;;;;60.05;36.30;;;4.70;99.90;;;;;;4852921;29;20109;-88
2022/03/02 04:36:39;;;;;;;68.25;40.53;;;4.20;99.90;;;;;;4835225;29;20438;-89
2022/03/02 04:39:05;;;;;;;64.70;37.85;;;4.20;99.90;;;;;;4828159;29;20054;-91
2022/03/02 04:41:31;;;;;;;64.70;36.42;;;4.20;99.90;;;;;;4826553;29;20465;-90
2022/03/02 04:43:57;;;;;;;65.40;38.10;;;4.00;99.90;;;;;;4825673;29;20488;-85
2022/03/02 04:46:23;;;;;;;69.18;40.85;;;3.80;99.90;;;;;;4840886;29;20057;-90
2022/03/02 04:48:48;;;;;;;70.22;39.40;;;3.60;99.90;;;;;;4841910;29;20061;-88
2022/03/02 04:51:14;;;;;;;70.18;39.78;;;3.60;99.90;;;;;;4839964;29;20077;-89
2022/03/02 04:53:40;;;;;;;72.88;39.53;;;3.50;99.90;;;;;;4826809;29;20057;-90
2022/03/02 04:56:05;;;;;;;72.18;40.05;;;3.50;99.90;;;;;;4848033;29;20033;-84
2022/03/02 04:58:31;;;;;;;67.13;38.72;;;3.50;99.90;;;;;;4838403;29;20069;-88
2022/03/02 05:00:57;;;;;;;70.70;38.55;;;3.50;99.90;;;;;;4841967;29;20060;-91
2022/03/02 05:03:22;;;;;;;71.93;40.60;;;3.40;99.90;;;;;;4840040;29;20066;-91
2022/03/02 05:05:48;;;;;;;75.38;40.83;;;4.00;99.90;;;;;;4825062;29;20106;-91
2022/03/02 05:08:14;;;;;;;72.93;38.90;;;3.10;99.90;;;;;;4839845;29;20058;-90
2022/03/02 05:10:40;;;;;;;71.78;39.70;;;2.90;99.90;;;;;;4824869;29;20049;-89
2022/03/02 05:13:05;;;;;;;73.90;42.15;;;4.20;99.90;;;;;;4824685;29;20046;-90
2022/03/02 05:15:31;;;;;;;75.80;41.47;;;2.80;99.90;;;;;;4824385;29;20423;-89
2022/03/02 05:17:58;;;;;;;79.10;43.33;;;3.70;99.90;;;;;;4839769;29;20136;-90
2022/03/02 05:20:23;;;;;;;72.25;40.17;;;2.70;99.90;;;;;;4839416;29;20061;-91
2022/03/02 05:22:49;;;;;;;72.65;39.55;;;3.80;99.90;;;;;;4839782;29;20484;-90
2022/03/02 05:25:16;;;;;;;76.22;40.10;;;2.70;99.90;;;;;;4840450;29;20538;-90
2022/03/02 05:27:42;;;;;;;84.30;43.17;;;2.70;99.90;;;;;;4839530;29;20444;-90
2022/03/02 05:30:08;;;;;;;81.97;40.90;;;2.60;99.90;;;;;;4824353;29;20046;-90
2022/03/02 05:32:34;;;;;;;78.63;42.08;;;2.60;99.90;;;;;;4824401;29;20456;-91
2022/03/02 05:34:59;;;;;;;77.93;42.63;;;2.50;99.90;;;;;;4839385;29;20133;-89
2022/03/02 05:37:25;;;;;;;85.18;44.17;;;2.40;99.90;;;;;;4823967;29;20049;-89
2022/03/02 05:39:51;;;;;;;82.03;45.00;;;3.90;99.90;;;;;;4840783;29;20144;-88
2022/03/02 05:42:16;;;;;;;78.35;43.05;;;2.70;99.90;;;;;;4839120;29;20075;-91
2022/03/02 05:44:44;;;;;;;91.72;45.30;;;2.90;99.90;;;;;;4842484;29;20060;-90
2022/03/02 05:47:10;;;;;;;83.72;45.33;;;2.30;99.90;;;;;;4846281;29;20054;-88
2022/03/02 05:49:35;;;;;;;83.55;43.05;;;2.20;99.90;;;;;;4858129;29;20072;-87
2022/03/02 05:52:01;;;;;;;83.35;44.97;;;2.20;99.90;;;;;;4844078;29;20069;-90
2022/03/02 05:54:27;;;;;;;81.10;43.55;;;2.10;99.90;;;;;;4845331;29;20050;-89
2022/03/02 05:56:53;;;;;;;83.53;43.75;;;2.10;99.90;;;;;;4857155;29;20099;-89
2022/03/02 05:59:18;;;;;;;87.20;44.80;;;2.00;99.90;;;;;;4845021;29;20072;-89
2022/03/02 06:01:44;;;;;;;88.00;44.78;;;2.60;99.90;;;;;;4844019;29;20141;-90
2022/03/02 06:04:11;;;;;;;85.47;45.30;;;2.20;99.90;;;;;;4844329;29;20049;-90
2022/03/02 06:06:37;;;;;;;87.97;45.42;;;1.90;99.90;;;;;;4843480;29;20131;-90
2022/03/02 06:09:04;;;;;;;88.22;46.00;;;1.90;99.90;;;;;;4843574;29;20484;-90
2022/03/02 06:11:30;;;;;;;84.63;42.53;;;1.90;99.90;;;;;;4843132;29;20125;-91
2022/03/02 06:13:56;;;;;;;85.60;44.45;;;1.90;99.90;;;;;;4828317;29;20053;-90
2022/03/02 06:16:22;;;;;;;91.63;46.28;;;2.00;99.90;;;;;;4828833;29;20452;-90
2022/03/02 06:18:48;;;;;;;84.45;43.70;;;2.00;99.90;;;;;;4843964;29;20058;-89
2022/03/02 06:21:32;;;;;;;87.10;45.97;;;1.90;99.90;;;;;;4842243;29;20128;-90
2022/03/02 06:23:58;;;;;;;89.82;45.58;;;1.90;99.90;;;;;;4828858;29;20049;-89
2022/03/02 06:26:25;;;;;;;87.93;43.55;;;1.90;99.90;;;;;;4811762;29;20053;-89
2022/03/02 06:28:50;;;;;;;86.28;44.97;;;2.80;99.90;;;;;;4813881;29;20089;-92
2022/03/02 06:31:18;;;;;;;80.03;41.50;;;1.80;99.90;;;;;;4844567;29;20085;-90
2022/03/02 06:33:44;;;;;;;86.05;40.58;;;1.70;99.90;;;;;;4842216;29;20098;-88
2022/03/02 06:36:10;;;;;;;85.10;43.08;;;1.80;99.90;;;;;;4843452;29;20053;-87
2022/03/02 06:38:35;;;;;;;86.15;45.08;;;1.90;99.90;;;;;;4815468;29;20053;-89
2022/03/02 06:41:03;;;;;;;82.68;39.38;;;2.50;99.90;;;;;;4861645;29;20030;-89
2022/03/02 06:43:33;;;;;;;91.00;46.65;;;1.90;99.90;;;;;;4843544;29;20054;-88
2022/03/02 06:46:42;;;;;;;76.93;37.42;;;2.70;99.90;;;;;;4842913;29;20118;-88
2022/03/02 06:49:49;;;;;;;79.47;42.20;;;2.00;99.90;;;;;;4840120;29;20069;-88
2022/03/02 06:52:18;;;;;;;82.90;40.83;;;2.10;99.90;;;;;;4841049;29;20066;-91
2022/03/02 06:54:44;;;;;;;83.03;39.17;;;2.20;99.90;;;;;;4827936;29;20045;-91
2022/03/02 06:57:13;;;;;;;83.97;43.17;;;2.50;99.90;;;;;;4813304;29;20077;-90
2022/03/02 06:59:42;;;;;;;77.90;41.95;;;3.60;99.90;;;;;;4842488;29;20060;-88
2022/03/02 07:02:08;;;;;;;75.38;40.97;;;2.90;99.90;;;;;;4827305;29;20119;-89
2022/03/02 07:04:38;;;;;;;74.63;41.00;;;3.10;99.90;;;;;;4842087;29;20058;-89
2022/03/02 07:07:04;;;;;;;71.85;40.22;;;3.00;99.90;;;;;;4826584;29;20521;-87
2022/03/02 07:09:30;;;;;;;73.90;38.67;;;3.20;99.90;;;;;;4845599;29;20046;-89
2022/03/02 07:11:56;;;;;;;64.65;37.63;;;3.40;99.90;;;;;;4829468;29;20050;-90
2022/03/02 07:14:22;;;;;;;67.20;38.38;;;3.60;99.90;;;;;;4827957;29;20149;-90
2022/03/02 07:16:48;;;;;;;59.92;36.72;;;3.60;99.90;;;;;;4827650;29;20041;-90
2022/03/02 07:19:13;;;;;;;60.38;35.63;;;3.80;99.90;;;;;;4842281;29;20089;-87
2022/03/02 07:21:39;;;;;;;60.47;35.15;;;3.90;99.90;;;;;;4842173;29;20096;-88
2022/03/02 07:24:06;;;;;;;58.25;34.60;;;4.20;99.90;;;;;;4844141;29;20058;-89
2022/03/02 07:26:32;;;;;;;53.67;32.95;;;4.50;99.90;;;;;;4812262;29;20113;-88
2022/03/02 07:28:58;;;;;;;51.47;32.70;;;6.20;99.90;;;;;;4826539;29;20042;-90
2022/03/02 07:31:24;;;;;;;47.65;29.05;;;5.40;99.90;;;;;;4810878;29;20061;-89
2022/03/02 07:33:51;;;;;;;49.40;30.85;;;5.90;99.90;;;;;;4825805;29;20054;-87
2022/03/02 07:36:18;;;;;;;47.67;30.77;;;6.70;99.90;;;;;;4841320;29;20050;-89
2022/03/02 07:38:44;;;;;;;48.58;28.77;;;6.30;99.90;;;;;;4841588;29;20057;-88
2022/03/02 07:41:10;;;;;;;50.25;30.65;;;6.60;99.90;;;;;;4826193;29;20495;-86
2022/03/02 07:43:36;;;;;;;49.05;30.77;;;6.60;99.90;;;;;;4796376;29;20068;-87
2022/03/02 07:46:05;;;;;;;51.50;32.45;;;6.50;99.90;;;;;;4841493;29;20038;-85
2022/03/02 07:48:31;;;;;;;49.55;30.80;;;6.80;99.90;;;;;;4829295;29;20081;-88
2022/03/02 07:50:57;;;;;;;44.88;29.27;;;6.60;99.90;;;;;;4819622;29;20104;-89
2022/03/02 07:53:24;;;;;;;44.85;29.95;;;6.50;99.90;;;;;;4838170;29;20056;-90
2022/03/02 07:55:50;;;;;;;43.17;28.40;;;6.90;99.90;;;;;;4824179;29;20056;-89
2022/03/02 07:58:16;;;;;;;46.45;29.15;;;7.30;99.90;;;;;;4840118;29;20085;-88
2022/03/02 08:00:41;;;;;;;43.50;29.42;;;7.60;99.90;;;;;;4837668;29;20054;-87
2022/03/02 08:03:07;;;;;;;44.28;29.48;;;8.10;99.90;;;;;;4848973;29;20071;-88
2022/03/02 08:05:34;;;;;;;44.60;28.58;;;8.50;99.90;;;;;;4814632;29;20122;-91
2022/03/02 08:08:00;;;;;;;41.08;27.60;;;9.30;99.90;;;;;;4829784;29;20089;-88
2022/03/02 08:10:28;;;;;;;45.17;29.65;;;9.50;99.90;;;;;;4815345;29;20060;-88
2022/03/02 08:12:54;;;;;;;38.17;28.17;;;9.60;99.90;;;;;;4816290;29;20144;-90
2022/03/02 08:15:20;;;;;;;43.03;28.40;;;9.50;99.90;;;;;;4846346;29;20494;-91
2022/03/02 08:17:46;;;;;;;39.30;27.75;;;9.50;99.90;;;;;;4844021;29;20053;-91
2022/03/02 08:20:11;;;;;;;39.28;27.85;;;10.00;99.90;;;;;;4848215;29;20483;-88
2022/03/02 08:22:38;;;;;;;40.67;27.38;;;10.40;99.90;;;;;;4854149;29;20089;-89
2022/03/02 08:25:10;;;;;;;44.80;29.88;;;10.30;99.90;;;;;;4852316;29;20052;-89
2022/03/02 08:27:38;;;;;;;41.33;27.80;;;10.50;99.90;;;;;;4833279;29;20050;-91
2022/03/02 08:30:06;;;;;;;42.15;27.80;;;11.10;99.90;;;;;;4829002;29;20460;-88
2022/03/02 08:32:35;;;;;;;37.35;27.30;;;11.30;99.90;;;;;;4842539;29;20490;-87
2022/03/02 08:35:01;;;;;;;38.67;26.02;;;11.20;99.90;;;;;;4845043;29;20068;-89
2022/03/02 08:37:27;;;;;;;41.72;27.27;;;11.80;99.90;;;;;;4868623;29;20604;-89
2022/03/02 08:39:54;;;;;;;37.72;26.15;;;11.40;99.90;;;;;;4846626;29;20422;-90
2022/03/02 08:42:19;;;;;;;38.63;23.70;;;11.30;99.90;;;;;;4864670;29;20062;-89
2022/03/02 08:44:46;;;;;;;36.08;27.33;;;10.50;99.90;;;;;;4850373;29;20509;-90
2022/03/02 08:47:11;;;;;;;36.70;26.38;;;10.10;99.90;;;;;;4854780;29;20049;-91
2022/03/02 08:49:37;;;;;;;37.83;26.52;;;11.10;99.90;;;;;;4854478;29;20117;-91
2022/03/02 08:52:03;;;;;;;37.70;26.20;;;10.80;99.90;;;;;;4857981;29;20089;-90
2022/03/02 08:54:30;;;;;;;40.70;27.40;;;11.00;99.90;;;;;;4877564;29;20518;-86
2022/03/02 08:56:56;;;;;;;39.38;23.88;;;11.00;99.90;;;;;;4858932;29;20057;-88
2022/03/02 08:59:21;;;;;;;38.65;25.55;;;11.40;99.90;;;;;;4846946;29;20105;-86
2022/03/02 09:01:51;;;;;;;39.85;26.70;;;10.90;99.90;;;;;;4863056;29;20056;-89
2022/03/02 09:04:17;;;;;;;37.10;25.13;;;10.90;99.90;;;;;;4863572;29;20157;-89
2022/03/02 09:06:44;;;;;;;38.78;24.92;;;11.80;99.90;;;;;;4829143;29;20061;-90
2022/03/02 09:09:10;;;;;;;37.15;26.95;;;12.10;99.90;;;;;;4861602;29;20514;-90
2022/03/02 09:11:38;;;;;;;39.92;27.40;;;11.70;99.90;;;;;;4835774;29;20049;-91
2022/03/02 09:14:03;;;;;;;39.60;27.83;;;11.70;99.90;;;;;;4865698;29;20072;-88
2022/03/02 09:16:29;;;;;;;37.42;26.58;;;11.30;99.90;;;;;;4863243;29;20105;-85
2022/03/02 09:18:55;;;;;;;37.85;27.17;;;11.90;99.90;;;;;;4865845;29;20064;-88
2022/03/02 09:21:21;;;;;;;38.92;28.65;;;11.90;99.90;;;;;;4830883;29;20152;-88
2022/03/02 09:23:46;;;;;;;41.03;27.50;;;11.90;99.90;;;;;;4830978;29;20061;-87
2022/03/02 09:26:14;;;;;;;39.10;25.77;;;12.30;99.90;;;;;;4831818;29;20046;-88
2022/03/02 09:28:42;;;;;;;42.78;27.55;;;12.30;99.90;;;;;;4816457;29;20104;-88
2022/03/02 09:31:10;;;;;;;40.15;26.50;;;12.00;99.90;;;;;;4835057;29;20041;-88
2022/03/02 09:33:36;;;;;;;36.83;26.35;;;12.00;99.90;;;;;;4837286;29;20110;-88
2022/03/02 09:36:05;;;;;;;34.88;25.58;;;11.70;99.90;;;;;;4837303;29;20041;-90
2022/03/02 09:38:32;;;;;;;38.72;26.83;;;11.30;99.90;;;;;;4819686;29;20483;-89
2022/03/02 09:41:00;;;;;;;40.47;25.73;;;11.80;99.90;;;;;;4845133;29;20114;-88
2022/03/02 09:43:26;;;;;;;35.97;25.17;;;11.90;99.90;;;;;;4848579;29;20057;-91
2022/03/02 09:45:55;;;;;;;33.85;22.55;;;11.80;99.90;;;;;;4871401;29;20605;-92
2022/03/02 09:48:29;;;;;;;40.20;25.45;;;12.10;99.90;;;;;;4845757;29;20137;-91
2022/03/02 09:50:58;;;;;;;36.83;23.27;;;11.80;99.90;;;;;;4865894;29;20057;-91
2022/03/02 09:53:25;;;;;;;37.92;24.88;;;11.80;99.90;;;;;;4883649;29;20064;-89
2022/03/02 09:55:50;;;;;;;38.03;26.40;;;11.20;99.90;;;;;;4882721;29;20106;-88
2022/03/02 09:58:16;;;;;;;37.33;25.77;;;10.80;99.90;;;;;;4867417;29;20050;-87
2022/03/02 10:00:42;;;;;;;38.28;25.88;;;11.00;99.90;;;;;;4868525;29;20084;-86
2022/03/02 10:03:08;;;;;;;38.10;25.92;;;10.90;99.90;;;;;;4870425;29;20054;-89
2022/03/02 10:05:34;;;;;;;36.83;20.10;;;10.20;99.90;;;;;;4870795;29;20057;-86
2022/03/02 10:08:07;;;;;;;34.65;20.58;;;10.60;99.90;;;;;;4885170;29;20053;-86
2022/03/02 10:10:40;;;;;;;38.78;26.98;;;10.20;99.90;;;;;;4885913;29;20041;-87
2022/03/02 10:13:10;;;;;;;35.65;26.10;;;10.50;99.90;;;;;;4870695;29;20097;-88
2022/03/02 10:15:37;;;;;;;40.33;26.45;;;10.60;99.90;;;;;;4871312;29;20037;-84
2022/03/02 10:18:03;;;;;;;39.55;26.30;;;10.00;99.90;;;;;;4868431;29;20064;-90
2022/03/02 10:20:34;;;;;;;38.08;25.27;;;10.10;99.90;;;;;;4876599;29;20046;-89
2022/03/02 10:23:25;;;;;;;36.53;25.55;;;10.00;99.90;;;;;;4861812;29;20049;-91
2022/03/02 10:26:06;;;;;;;41.35;25.90;;;9.90;99.90;;;;;;4878770;29;20078;-90
2022/03/02 10:29:12;;;;;;;41.65;26.20;;;9.60;99.90;;;;;;4879491;29;20088;-87
2022/03/02 10:32:18;;;;;;;35.90;22.67;;;9.80;99.90;;;;;;4879288;29;20056;-88
2022/03/02 10:34:55;;;;;;;30.80;18.85;;;10.40;99.90;;;;;;4882478;29;20046;-87
2022/03/02 10:37:34;;;;;;;44.80;27.65;;;10.60;99.90;;;;;;4884612;29;20064;-83
2022/03/02 10:40:09;;;;;;;36.80;22.80;;;10.30;99.90;;;;;;4868389;29;20033;-85
2022/03/02 10:42:41;;;;;;;36.90;25.13;;;10.20;99.90;;;;;;4882608;29;20065;-86
2022/03/02 10:45:28;;;;;;;36.85;25.75;;;10.20;99.90;;;;;;4866023;29;20068;-88
2022/03/02 10:47:57;;;;;;;33.50;18.88;;;9.80;99.90;;;;;;4852609;29;20127;-87
2022/03/02 10:50:24;;;;;;;40.65;25.95;;;10.00;99.90;;;;;;4859696;29;20141;-88
2022/03/02 10:52:50;;;;;;;35.33;24.92;;;10.00;99.90;;;;;;4859311;29;20049;-89
2022/03/02 10:55:15;;;;;;;36.92;24.73;;;9.80;99.90;;;;;;4829857;29;20055;-89
2022/03/02 10:57:41;;;;;;;34.42;21.98;;;10.50;99.90;;;;;;4861265;29;20133;-84
2022/03/02 11:00:13;;;;;;;34.08;22.92;;;10.70;99.90;;;;;;4829270;29;20056;-90
2022/03/02 11:02:44;;;;;;;37.25;25.50;;;10.30;99.90;;;;;;4861004;29;20170;-90
2022/03/02 11:05:13;;;;;;;37.38;22.83;;;10.10;99.90;;;;;;4861633;29;20045;-89
2022/03/02 11:07:40;;;;;;;34.20;22.70;;;10.10;99.90;;;;;;4860306;29;20071;-89
2022/03/02 11:10:07;;;;;;;33.63;23.55;;;10.00;99.90;;;;;;4860934;29;20071;-87
2022/03/02 11:12:32;;;;;;;33.70;23.27;;;9.70;99.90;;;;;;4844819;29;20049;-87
2022/03/02 11:15:03;;;;;;;33.70;23.35;;;9.80;99.90;;;;;;4859663;29;20106;-87
2022/03/02 11:17:29;;;;;;;33.55;23.65;;;9.40;99.90;;;;;;4829578;29;20366;-87
2022/03/02 11:19:56;;;;;;;32.50;20.48;;;9.40;99.90;;;;;;4843595;29;20053;-87
2022/03/02 11:22:23;;;;;;;24.38;15.05;;;9.40;99.90;;;;;;4859719;29;20101;-86
2022/03/02 11:24:55;;;;;;;35.22;24.35;;;9.30;99.90;;;;;;4859496;29;20064;-86
2022/03/02 11:27:50;;;;;;;32.22;21.42;;;9.10;99.90;;;;;;4859212;29;20132;-88
2022/03/02 11:30:16;;;;;;;35.47;23.45;;;9.00;99.90;;;;;;4845750;29;20494;-89
2022/03/02 11:32:47;;;;;;;32.45;22.52;;;9.00;99.90;;;;;;4843568;29;20100;-88
2022/03/02 11:35:16;;;;;;;33.40;22.45;;;8.80;99.90;;;;;;4829756;29;20164;-89
2022/03/02 11:37:42;;;;;;;33.13;21.77;;;8.90;99.90;;;;;;4843639;29;20083;-87
2022/03/02 11:40:09;;;;;;;31.50;20.00;;;8.90;99.90;;;;;;4857342;29;20057;-87
2022/03/02 11:42:38;;;;;;;31.00;20.92;;;9.00;99.90;;;;;;4856440;29;20060;-86
2022/03/02 11:45:05;;;;;;;32.10;18.02;;;9.30;99.90;;;;;;4857906;29;20046;-87
2022/03/02 11:47:41;;;;;;;33.30;22.88;;;9.50;99.90;;;;;;4849446;29;20050;-89
2022/03/02 11:50:11;;;;;;;33.22;22.38;;;9.60;99.90;;;;;;4828085;29;20585;-88
2022/03/02 11:52:42;;;;;;;33.28;21.73;;;9.40;99.90;;;;;;4829215;29;20371;-88
2022/03/02 11:55:16;;;;;;;33.85;23.00;;;9.30;99.90;;;;;;4840838;29;20046;-87
2022/03/02 11:57:47;;;;;;;32.85;20.83;;;9.20;99.90;;;;;;4828253;29;20060;-88
2022/03/02 12:00:18;;;;;;;30.75;19.75;;;9.40;99.90;;;;;;4854624;29;20078;-88
2022/03/02 12:03:02;;;;;;;30.52;19.42;;;10.10;99.90;;;;;;4851703;29;20050;-89
2022/03/02 12:05:30;;;;;;;26.90;17.30;;;9.50;99.90;;;;;;4842721;29;20054;-86
2022/03/02 12:08:05;;;;;;;30.13;18.50;;;9.70;99.90;;;;;;4855350;29;20049;-88
2022/03/02 12:10:41;;;;;;;34.63;22.27;;;9.60;99.90;;;;;;4844967;29;20065;-89
2022/03/02 12:13:07;;;;;;;33.63;21.75;;;9.60;99.90;;;;;;4825799;29;20046;-88
2022/03/02 12:15:44;;;;;;;32.42;21.98;;;9.50;99.90;;;;;;4826376;29;20049;-89
2022/03/02 12:18:11;;;;;;;29.45;21.17;;;9.50;99.90;;;;;;4840507;29;20046;-88
2022/03/02 12:20:47;;;;;;;31.40;19.50;;;9.50;99.90;;;;;;4842224;29;20101;-88
2022/03/02 12:23:12;;;;;;;29.73;19.10;;;9.50;99.90;;;;;;4840052;29;20272;-88
2022/03/02 12:25:43;;;;;;;31.48;19.85;;;9.70;99.90;;;;;;4825314;29;20562;-91
2022/03/02 12:28:11;;;;;;;30.23;19.08;;;9.70;99.90;;;;;;4841463;29;20113;-89
2022/03/02 12:30:37;;;;;;;30.27;20.20;;;9.90;99.90;;;;;;4825567;29;20061;-86
2022/03/02 12:33:04;;;;;;;30.80;20.92;;;9.70;99.90;;;;;;4824612;29;20137;-87
2022/03/02 12:35:30;;;;;;;30.25;16.95;;;9.80;99.90;;;;;;4840282;29;20050;-87
2022/03/02 12:38:03;;;;;;;29.15;19.75;;;9.90;99.90;;;;;;4838916;29;20069;-83